createdAt,value
2022-10-04T00:01:47.787Z,6.39
2022-10-04T00:06:57.443Z,6.25
2022-10-04T00:12:03.983Z,6.20
2022-10-04T00:17:11.815Z,6.26
2022-10-04T00:22:20.103Z,6.26
2022-10-04T00:27:27.347Z,6.26
2022-10-04T00:32:32.029Z,6.23
2022-10-04T00:37:57.171Z,6.23
2022-10-04T00:43:05.207Z,6.29
2022-10-04T00:48:32.693Z,6.29
2022-10-04T00:53:46.676Z,6.33
2022-10-04T00:59:13.804Z,6.43
2022-10-04T01:04:25.015Z,6.46
2022-10-04T01:09:28.828Z,6.52
2022-10-04T01:14:44.869Z,6.56
2022-10-04T01:19:53.694Z,6.64
2022-10-04T01:24:58.576Z,6.67
2022-10-04T01:30:02.427Z,6.65
2022-10-04T01:35:06.035Z,6.69
2022-10-04T01:40:11.408Z,6.68
2022-10-04T01:45:20.022Z,6.73
2022-10-04T01:50:29.215Z,6.74
2022-10-04T01:55:36.703Z,6.71
2022-10-04T02:00:45.580Z,6.70
2022-10-04T02:05:54.213Z,6.71
2022-10-04T02:11:00.603Z,6.75
2022-10-04T02:16:05.520Z,6.71
2022-10-04T02:21:08.682Z,6.70
2022-10-04T02:26:13.171Z,6.68
2022-10-04T02:31:39.303Z,6.63
2022-10-04T02:36:42.832Z,6.56
2022-10-04T02:41:51.909Z,6.65
2022-10-04T02:47:05.763Z,6.66
2022-10-04T02:52:12.051Z,6.69
2022-10-04T02:57:19.231Z,6.75
2022-10-04T03:02:29.566Z,6.73
2022-10-04T03:07:34.513Z,6.81
2022-10-04T03:12:38.944Z,6.85
2022-10-04T03:17:43.202Z,6.90
2022-10-04T03:22:47.413Z,6.91
2022-10-04T03:27:53.501Z,6.86
2022-10-04T03:32:56.414Z,6.86
2022-10-04T03:38:03.078Z,6.75
2022-10-04T03:43:07.783Z,6.82
2022-10-04T03:48:16.402Z,6.84
2022-10-04T03:53:29.073Z,6.86
2022-10-04T03:58:38.746Z,6.85
2022-10-04T04:03:52.276Z,6.76
2022-10-04T04:08:56.445Z,6.78
2022-10-04T04:14:07.372Z,6.74
2022-10-04T04:19:14.296Z,6.61
2022-10-04T04:24:25.176Z,6.67
2022-10-04T04:29:34.656Z,6.74
2022-10-04T04:34:52.931Z,6.55
2022-10-04T04:39:56.415Z,6.64
2022-10-04T04:45:04.043Z,6.65
2022-10-04T04:50:12.177Z,6.72
2022-10-04T04:55:20.137Z,6.78
2022-10-04T05:00:29.347Z,6.77
2022-10-04T05:05:34.296Z,6.80
2022-10-04T05:10:37.420Z,6.81
2022-10-04T05:15:43.430Z,6.86
2022-10-04T05:20:50.727Z,6.86
2022-10-04T05:25:53.646Z,6.85
2022-10-04T05:31:13.996Z,6.84
2022-10-04T05:36:58.448Z,6.83
2022-10-04T05:42:08.467Z,6.80
2022-10-04T05:47:15.253Z,6.91
2022-10-04T05:52:30.453Z,6.86
2022-10-04T05:57:45.158Z,7.01
2022-10-04T06:03:18.237Z,7.04
2022-10-04T06:08:33.260Z,7.09
2022-10-04T06:14:09.769Z,7.13
2022-10-04T06:19:32.007Z,7.25
2022-10-04T06:24:38.641Z,7.22
2022-10-04T06:29:47.283Z,7.21
2022-10-04T06:35:15.887Z,7.33
2022-10-04T06:40:37.970Z,7.41
2022-10-04T06:46:00.467Z,7.42
2022-10-04T06:51:18.670Z,7.47
2022-10-04T06:56:39.022Z,7.58
2022-10-04T07:01:51.316Z,7.62
2022-10-04T07:07:22.551Z,7.65
2022-10-04T07:12:26.063Z,7.72
2022-10-04T07:17:33.750Z,7.91
2022-10-04T07:22:46.220Z,7.96
2022-10-04T07:28:14.777Z,8.18
2022-10-04T07:33:22.034Z,8.29
2022-10-04T07:38:28.147Z,8.53
2022-10-04T07:43:34.083Z,8.69
2022-10-04T07:48:41.410Z,8.77
2022-10-04T07:53:52.956Z,8.71
2022-10-04T07:59:07.767Z,8.96
2022-10-04T08:04:28.926Z,9.01
2022-10-04T08:09:47.339Z,8.97
2022-10-04T08:14:56.376Z,8.91
2022-10-04T08:20:10.401Z,8.95
2022-10-04T08:25:23.373Z,9.06
2022-10-04T08:30:26.445Z,8.99
2022-10-04T08:35:37.261Z,9.07
2022-10-04T08:41:27.467Z,9.18
2022-10-04T08:47:07.684Z,9.21
2022-10-04T08:52:52.074Z,9.37
2022-10-04T08:58:14.358Z,9.96
2022-10-04T09:04:02.111Z,10.06
2022-10-04T09:09:40.712Z,10.04
2022-10-04T09:15:18.710Z,10.36
2022-10-04T09:20:39.596Z,10.63
2022-10-04T09:25:54.243Z,10.79
2022-10-04T09:31:20.341Z,10.70
2022-10-04T09:36:43.708Z,11.23
2022-10-04T09:42:11.223Z,11.35
2022-10-04T09:47:37.618Z,11.52
2022-10-04T09:52:48.330Z,11.81
2022-10-04T09:58:11.790Z,12.29
2022-10-04T10:03:41.850Z,12.39
2022-10-04T10:08:57.250Z,12.87
2022-10-04T10:14:39.947Z,13.31
2022-10-04T10:20:22.995Z,13.51
2022-10-04T10:25:47.812Z,13.74
2022-10-04T10:31:08.582Z,14.42
2022-10-04T10:36:43.828Z,14.61
2022-10-04T10:42:06.432Z,15.29
2022-10-04T10:47:34.247Z,15.47
2022-10-04T10:52:59.561Z,15.96
2022-10-04T10:58:51.815Z,16.04
2022-10-04T11:04:28.526Z,16.60
2022-10-04T11:09:35.449Z,17.14
2022-10-04T11:14:54.105Z,17.34
2022-10-04T11:20:34.066Z,17.93
2022-10-04T11:26:14.169Z,17.95
2022-10-04T11:32:05.549Z,18.52
2022-10-04T11:37:17.104Z,18.83
2022-10-04T11:42:37.855Z,19.63
2022-10-04T11:47:59.464Z,19.47
2022-10-04T11:53:27.175Z,19.93
2022-10-04T11:58:42.526Z,20.65
2022-10-04T12:04:28.095Z,21.01
2022-10-04T12:09:42.230Z,21.76
2022-10-04T12:14:57.805Z,22.03
2022-10-04T12:20:54.142Z,22.59
2022-10-04T12:26:33.572Z,23.94
2022-10-04T12:31:43.017Z,23.40
2022-10-04T12:37:14.215Z,23.03
2022-10-04T12:42:32.414Z,24.25
2022-10-04T12:47:53.834Z,24.61
2022-10-04T12:53:07.740Z,23.12
2022-10-04T12:58:22.788Z,22.51
2022-10-04T13:03:33.575Z,21.26
2022-10-04T13:08:52.613Z,21.07
2022-10-04T13:14:11.607Z,20.07
2022-10-04T13:19:23.443Z,19.87
2022-10-04T13:24:32.199Z,19.19
2022-10-04T13:29:43.618Z,18.92
2022-10-04T13:34:54.371Z,19.04
2022-10-04T13:45:42.492Z,18.77
2022-10-04T13:51:00.098Z,18.51
2022-10-04T13:56:32.433Z,18.41
2022-10-04T14:02:13.864Z,18.44
2022-10-04T14:07:34.569Z,18.44
2022-10-04T14:13:06.099Z,18.36
2022-10-04T14:18:58.332Z,18.38
2022-10-04T14:24:34.961Z,18.04
2022-10-04T14:29:50.581Z,18.24
2022-10-04T14:35:02.078Z,18.22
2022-10-04T14:40:32.706Z,17.94
2022-10-04T14:45:45.166Z,18.17
2022-10-04T14:51:36.967Z,18.26
2022-10-04T14:56:59.133Z,18.13
2022-10-04T15:02:23.964Z,18.04
2022-10-04T15:07:32.943Z,18.12
2022-10-04T15:13:16.637Z,18.14
2022-10-04T15:18:36.514Z,17.91
2022-10-04T15:23:43.138Z,17.85
2022-10-04T15:29:07.323Z,17.73
2022-10-04T15:34:31.190Z,17.82
2022-10-04T15:39:58.954Z,17.59
2022-10-04T15:45:24.034Z,17.50
2022-10-04T15:50:32.182Z,17.33
2022-10-04T15:56:00.909Z,17.27
2022-10-04T16:01:38.889Z,17.30
2022-10-04T16:06:49.025Z,17.00
2022-10-04T16:12:03.592Z,16.91
2022-10-04T16:17:28.732Z,16.75
2022-10-04T16:22:33.007Z,16.70
2022-10-04T16:27:47.030Z,16.56
2022-10-04T16:33:06.598Z,16.39
2022-10-04T16:38:24.435Z,16.24
2022-10-04T16:43:30.098Z,15.99
2022-10-04T16:48:52.057Z,15.69
2022-10-04T16:54:04.579Z,15.50
2022-10-04T16:59:12.355Z,15.35
2022-10-04T17:04:33.518Z,15.09
2022-10-04T17:09:47.209Z,14.97
2022-10-04T17:15:21.426Z,14.76
2022-10-04T17:20:40.217Z,14.60
2022-10-04T17:25:51.791Z,14.35
2022-10-04T17:31:02.227Z,14.18
2022-10-04T17:36:20.799Z,13.95
2022-10-04T17:41:33.509Z,13.79
2022-10-04T17:46:44.370Z,13.60
2022-10-04T17:52:08.666Z,13.48
2022-10-04T17:57:22.818Z,13.31
2022-10-04T18:02:34.739Z,13.13
2022-10-04T18:07:45.150Z,12.94
2022-10-04T18:12:52.938Z,12.82
2022-10-04T18:18:12.944Z,12.70
2022-10-04T18:23:20.864Z,12.50
2022-10-04T18:28:24.165Z,12.33
2022-10-04T18:33:46.302Z,12.20
2022-10-04T18:39:17.533Z,12.09
2022-10-04T18:44:23.276Z,11.93
2022-10-04T18:49:30.219Z,11.77
2022-10-04T18:54:42.236Z,11.64
2022-10-04T19:00:12.765Z,11.50
2022-10-04T19:05:23.722Z,11.32
2022-10-04T19:10:33.971Z,11.24
2022-10-04T19:15:45.570Z,11.11
2022-10-04T19:20:55.647Z,10.98
2022-10-04T19:31:38.390Z,10.66
2022-10-04T19:36:51.467Z,10.62
2022-10-04T19:42:00.357Z,10.51
2022-10-04T19:47:10.655Z,10.42
2022-10-04T19:52:22.937Z,10.34
2022-10-04T19:57:36.478Z,10.25
2022-10-04T20:02:42.620Z,10.16
2022-10-04T20:07:54.635Z,10.01
2022-10-04T20:13:24.095Z,9.96
2022-10-04T20:19:10.665Z,9.91
2022-10-04T20:24:17.716Z,9.75
2022-10-04T20:30:06.287Z,9.66
2022-10-04T20:35:14.013Z,9.53
2022-10-04T20:40:44.338Z,9.50
2022-10-04T20:45:48.039Z,9.49
2022-10-04T20:50:53.449Z,9.43
2022-10-04T20:56:11.029Z,9.46
2022-10-04T21:01:42.373Z,9.40
2022-10-04T21:06:56.870Z,9.35
2022-10-04T21:12:02.174Z,9.36
2022-10-04T21:17:06.854Z,9.33
2022-10-04T21:22:11.898Z,9.29
2022-10-04T21:27:28.457Z,9.27
2022-10-04T21:32:35.639Z,9.27
2022-10-04T21:37:39.981Z,9.19
2022-10-04T21:42:42.721Z,9.12
2022-10-04T21:47:45.492Z,9.09
2022-10-04T21:52:49.652Z,9.08
2022-10-04T21:57:52.491Z,9.01
2022-10-04T22:02:55.231Z,8.91
2022-10-04T22:07:59.587Z,8.77
2022-10-04T22:13:02.418Z,8.74
2022-10-04T22:18:05.373Z,8.67
2022-10-04T22:23:17.632Z,8.57
2022-10-04T22:28:26.691Z,8.49
2022-10-04T22:33:33.926Z,8.32
2022-10-04T22:38:43.214Z,8.36
2022-10-04T22:43:46.123Z,8.33
2022-10-04T22:48:50.253Z,8.32
2022-10-04T22:53:54.372Z,8.25
2022-10-04T22:58:59.313Z,8.18
2022-10-04T23:04:02.165Z,8.10
2022-10-04T23:09:06.235Z,8.02
2022-10-04T23:14:09.029Z,8.00
2022-10-04T23:19:14.714Z,7.92
2022-10-04T23:24:20.802Z,7.84
2022-10-04T23:29:25.981Z,7.81
2022-10-04T23:34:31.800Z,7.74
2022-10-04T23:39:37.284Z,7.66
2022-10-04T23:44:40.047Z,7.61
2022-10-04T23:49:46.186Z,7.54
2022-10-04T23:54:52.687Z,7.45
2022-10-04T23:59:56.312Z,7.40
